Portland, Oregon
Current Conditions -  °F | °C
As of 8:53 AM on Tuesday 27 Jan 2015 (Local Time) from KPDX Reporting Station
Drizzle Drizzle  
Wind Chill: 37°   Ceiling: 300
Heat Index: 42°   Visibility: 0.12mi
Dew Point: 42°   Wind: 8mph
Humidity: 100%   Direction: 110°ESE
Pressure: 30.11"   Gusts: NA
Location:  45.51°N, 122.67°W
Report Text: KPDX 271653Z 11007KT 1/8SM R10R/4500VP6000FT -DZ FG VV003 06/06 A3011 RMK AO2 SFC VIS 1/2 SLP194 P0000 T00560056
Loading
Personal Weather Stations






























Interactive Weather Map New forecast layout! Learn more

10-Day Weather Forecast

Advertisements
Track Severe Weather on mobile